Time;durP1;ratioP1;P1;durP2;ratioP2;P2;SDS_P1;SDS_P2;PMS_P1;PMS_P2;Temp;Humidity;BMP_temperature;BMP_pressure;BME280_temperature;BME280_humidity;BME280_pressure;Samples;Min_cycle;Max_cycle;Signal;HPM_P1;HPM_P2
2022/03/21 00:02:05;;;;;;;58.58;20.40;;;-3276.30;42.80;;;;;;5035192;28;20025;-83
2022/03/21 00:04:31;;;;;;;55.53;21.10;;;-3276.20;42.90;;;;;;5035741;28;20024;-84
2022/03/21 00:06:57;;;;;;;61.50;21.55;;;-3276.20;43.10;;;;;;5035313;28;20390;-84
2022/03/21 00:09:23;;;;;;;55.35;20.08;;;-3276.20;43.20;;;;;;5036077;28;20017;-83
2022/03/21 00:11:50;;;;;;;57.80;21.90;;;-3276.10;43.30;;;;;;5034893;28;20029;-83
2022/03/21 00:14:16;;;;;;;61.53;21.17;;;-3276.10;43.30;;;;;;5032874;28;20060;-84
2022/03/21 00:16:41;;;;;;;50.35;20.00;;;-3276.10;43.50;;;;;;5035217;28;20074;-83
2022/03/21 00:19:07;;;;;;;54.95;20.10;;;-3276.00;43.70;;;;;;5034821;28;20021;-85
2022/03/21 00:21:34;;;;;;;;;;;-3276.00;43.80;;;;;;5035925;28;20029;-83
2022/03/21 00:24:04;;;;;;;52.90;19.45;;;-3275.90;43.80;;;;;;5034662;28;19909;-84
2022/03/21 00:26:30;;;;;;;48.07;19.23;;;-3275.90;43.50;;;;;;5035453;28;20501;-83
2022/03/21 00:28:55;;;;;;;52.70;19.42;;;-3275.80;43.70;;;;;;5034753;28;20029;-82
2022/03/21 00:31:21;;;;;;;51.33;18.88;;;-3275.80;43.90;;;;;;5035151;28;20033;-83
2022/03/21 00:33:46;;;;;;;51.80;20.63;;;-3275.70;44.10;;;;;;5035543;28;20032;-83
2022/03/21 00:36:12;;;;;;;54.15;19.75;;;-3275.70;44.20;;;;;;5035087;28;20052;-83
2022/03/21 00:38:38;;;;;;;51.55;19.98;;;-3275.70;44.30;;;;;;5035441;28;20163;-83
2022/03/21 00:41:07;;;;;;;45.58;18.45;;;-3275.70;44.40;;;;;;5035881;28;20060;-83
2022/03/21 00:43:33;;;;;;;45.70;19.13;;;-3275.60;44.60;;;;;;5035002;28;20025;-84
2022/03/21 00:45:59;;;;;;;44.77;18.23;;;-3275.50;44.80;;;;;;5034419;28;20492;-84
2022/03/21 00:48:28;;;;;;;42.85;16.88;;;-3275.50;45.00;;;;;;5034540;28;20028;-84
2022/03/21 00:50:54;;;;;;;53.10;18.57;;;-3275.50;45.20;;;;;;5035526;28;20111;-83
2022/03/21 00:53:21;;;;;;;51.33;19.20;;;-3275.50;45.30;;;;;;5034122;28;20044;-83
2022/03/21 00:55:48;;;;;;;46.63;18.67;;;-3275.40;45.40;;;;;;5052729;28;20389;-84
2022/03/21 00:58:14;;;;;;;50.57;17.67;;;-3275.40;45.50;;;;;;5034757;28;20020;-84
2022/03/21 01:00:40;;;;;;;50.10;17.97;;;-3275.40;45.60;;;;;;5034679;28;20028;-84
2022/03/21 01:03:06;;;;;;;51.03;18.20;;;-3275.30;45.80;;;;;;5034534;28;20021;-84
2022/03/21 01:05:32;;;;;;;41.22;18.13;;;-3275.30;45.80;;;;;;5034532;28;20033;-84
2022/03/21 01:07:58;;;;;;;50.80;18.77;;;-3275.30;45.90;;;;;;5034384;28;20474;-84
2022/03/21 01:10:26;;;;;;;50.87;19.10;;;-3275.20;46.10;;;;;;5033076;28;20021;-84
2022/03/21 01:12:52;;;;;;;42.70;17.07;;;-3275.20;46.20;;;;;;5034147;28;20020;-83
2022/03/21 01:15:19;;;;;;;;;;;-3275.20;46.40;;;;;;5034847;28;20025;-84
2022/03/21 01:17:46;;;;;;;50.83;18.45;;;-3275.20;46.50;;;;;;5052665;28;19908;-83
2022/03/21 01:20:14;;;;;;;50.07;17.23;;;-3275.30;46.20;;;;;;5035578;28;20056;-83
2022/03/21 01:22:40;;;;;;;46.50;17.00;;;-3275.30;46.50;;;;;;5034268;28;20052;-83
2022/03/21 01:25:06;;;;;;;49.88;17.85;;;-3275.30;46.50;;;;;;5056564;28;20021;-83
2022/03/21 01:27:34;;;;;;;68.03;20.20;;;-3275.30;46.90;;;;;;5033924;28;20033;-82
2022/03/21 01:30:00;;;;;;;68.27;21.97;;;-3275.30;46.80;;;;;;5034334;28;20029;-83
2022/03/21 01:32:26;;;;;;;82.63;27.77;;;-3275.30;46.90;;;;;;5052422;28;20029;-84
2022/03/21 01:34:52;;;;;;;72.68;24.85;;;-3275.20;46.90;;;;;;5034375;28;20390;-84
2022/03/21 01:37:17;;;;;;;61.75;23.42;;;-3275.20;47.00;;;;;;5034724;28;20090;-85
2022/03/21 01:39:43;;;;;;;67.00;23.80;;;-3275.20;47.00;;;;;;5034591;28;20025;-85
2022/03/21 01:42:09;;;;;;;61.75;23.15;;;-3275.10;47.10;;;;;;5036689;28;20036;-84
2022/03/21 01:44:34;;;;;;;55.60;20.33;;;-3275.10;47.20;;;;;;5038701;28;20032;-84
2022/03/21 01:47:01;;;;;;;85.60;25.35;;;-3275.10;47.20;;;;;;5038291;28;20025;-83
2022/03/21 01:49:26;;;;;;;78.10;25.27;;;-3275.00;47.40;;;;;;5038372;28;20026;-83
2022/03/21 01:51:53;;;;;;;74.90;22.83;;;-3275.00;47.50;;;;;;5038124;28;20017;-83
2022/03/21 01:57:05;;;;;;;65.13;22.93;;;-3275.00;47.70;;;;;;5054738;28;20036;-84
2022/03/21 01:59:32;;;;;;;69.23;23.10;;;-3274.90;47.70;;;;;;5037498;28;20021;-84
2022/03/21 02:01:57;;;;;;;75.43;23.77;;;-3274.90;47.80;;;;;;5054688;28;20032;-84
2022/03/21 02:04:23;;;;;;;76.82;24.83;;;-3274.90;47.90;;;;;;5037156;28;20029;-83
2022/03/21 02:06:49;;;;;;;66.82;24.00;;;-3274.90;48.00;;;;;;5038035;28;20029;-84
2022/03/21 02:09:14;;;;;;;66.18;23.20;;;-3274.80;48.00;;;;;;5056058;28;20112;-84
2022/03/21 02:11:40;;;;;;;62.70;22.33;;;-3274.80;48.10;;;;;;5037710;28;20028;-83
2022/03/21 02:14:08;;;;;;;62.15;23.00;;;-3274.80;48.10;;;;;;5037611;28;20021;-84
2022/03/21 02:16:35;;;;;;;67.63;22.87;;;-3274.70;48.30;;;;;;5038153;28;20020;-85
2022/03/21 02:19:19;;;;;;;61.50;23.57;;;-3274.70;48.40;;;;;;5055702;28;20013;-85
2022/03/21 02:21:57;;;;;;;67.67;23.97;;;-3274.70;48.70;;;;;;5052957;28;20470;-85
2022/03/21 02:24:46;;;;;;;61.03;23.13;;;-3274.70;48.60;;;;;;5035203;28;20024;-84
2022/03/21 02:27:12;;;;;;;69.97;24.30;;;-3274.60;48.80;;;;;;5036577;28;20489;-84
2022/03/21 02:29:40;;;;;;;70.07;25.03;;;-3274.60;48.70;;;;;;5037426;28;20028;-84
2022/03/21 02:32:07;;;;;;;71.83;25.10;;;-3274.50;48.70;;;;;;5037170;28;20025;-84
2022/03/21 02:34:36;;;;;;;73.90;25.23;;;-3274.50;48.90;;;;;;5037169;28;20549;-84
2022/03/21 02:37:03;;;;;;;80.20;26.17;;;-3274.50;49.00;;;;;;5055826;28;20036;-84
2022/03/21 02:39:29;;;;;;;64.70;24.83;;;-3274.50;49.00;;;;;;5036857;28;20029;-83
2022/03/21 02:41:55;;;;;;;67.47;25.87;;;-3274.40;49.10;;;;;;5037419;28;20088;-83
2022/03/21 02:44:21;;;;;;;;;;;-3274.40;49.20;;;;;;5038263;28;20032;-84
2022/03/21 02:46:47;;;;;;;67.83;25.73;;;-3274.30;49.30;;;;;;5055255;28;19942;-84
2022/03/21 02:49:15;;;;;;;71.82;24.38;;;-3274.30;48.90;;;;;;5054446;28;20187;-82
2022/03/21 02:51:42;;;;;;;73.93;24.30;;;-3274.20;49.10;;;;;;5036787;28;20025;-82
2022/03/21 02:54:08;;;;;;;73.17;25.87;;;-3274.20;49.20;;;;;;5032333;28;20424;-83
2022/03/21 02:56:33;;;;;;;69.45;25.45;;;-3274.10;49.30;;;;;;5037464;28;20032;-84
2022/03/21 02:58:59;;;;;;;69.25;27.20;;;-3274.20;49.60;;;;;;5037537;28;20021;-83
2022/03/21 03:01:26;;;;;;;76.90;27.63;;;-3274.10;49.60;;;;;;5037404;28;20024;-83
2022/03/21 03:03:51;;;;;;;70.13;26.67;;;-3274.10;49.70;;;;;;5055264;28;20056;-84
2022/03/21 03:06:17;;;;;;;;;;;-3274.10;49.80;;;;;;5036902;28;20120;-84
2022/03/21 03:08:43;;;;;;;56.80;21.77;;;-3274.10;49.90;;;;;;5036395;28;19919;-84
2022/03/21 03:11:11;;;;;;;53.17;22.53;;;-3274.10;49.60;;;;;;5034348;28;20045;-83
2022/03/21 03:13:37;;;;;;;63.57;24.10;;;-3274.10;49.70;;;;;;5035668;28;20458;-84
2022/03/21 03:16:02;;;;;;;;;;;-3274.10;49.80;;;;;;5036341;28;20120;-84
2022/03/21 03:18:28;;;;;;;61.77;22.63;;;-3274.00;49.90;;;;;;5053936;28;19958;-84
2022/03/21 03:20:56;;;;;;;58.72;22.33;;;-3274.00;49.60;;;;;;5036366;28;20027;-84
2022/03/21 03:23:24;;;;;;;56.00;22.47;;;-3274.00;49.70;;;;;;5035686;28;20017;-84
2022/03/21 03:26:00;;;;;;;53.27;22.00;;;-3273.90;49.90;;;;;;5034814;28;20021;-83
2022/03/21 03:28:26;;;;;;;51.13;20.73;;;-3273.90;50.20;;;;;;5032699;28;20075;-84
2022/03/21 03:30:52;;;;;;;58.43;22.50;;;-3273.90;50.30;;;;;;5036264;28;20370;-84
2022/03/21 03:33:19;;;;;;;62.30;23.20;;;-3273.90;50.50;;;;;;5035601;28;20033;-83
2022/03/21 03:35:45;;;;;;;56.67;21.17;;;-3273.80;50.60;;;;;;5035413;28;20029;-84
2022/03/21 03:38:10;;;;;;;;;;;-3273.90;50.70;;;;;;5036245;28;20358;-84
2022/03/21 03:40:36;;;;;;;50.50;21.47;;;-3273.90;50.70;;;;;;5035782;28;19931;-84
2022/03/21 03:43:02;;;;;;;63.17;21.50;;;-3273.90;50.30;;;;;;5035904;28;20059;-84
2022/03/21 03:45:27;;;;;;;52.30;21.63;;;-3273.80;50.40;;;;;;5036093;28;20029;-84
2022/03/21 03:47:53;;;;;;;54.77;21.77;;;-3273.80;50.50;;;;;;5035873;28;20021;-83
2022/03/21 03:50:19;;;;;;;57.88;22.00;;;-3273.70;50.60;;;;;;5036175;28;20040;-84
2022/03/21 03:52:46;;;;;;;;;;;-3273.70;50.70;;;;;;5036570;28;20039;-84
2022/03/21 03:55:13;;;;;;;48.00;20.55;;;-3273.70;50.80;;;;;;5035745;28;19916;-84
2022/03/21 03:57:39;;;;;;;45.50;20.17;;;-3273.70;50.50;;;;;;5035396;28;20386;-83
2022/03/21 04:00:05;;;;;;;;;;;-3273.70;50.60;;;;;;5035793;28;20013;-83
2022/03/21 04:03:44;;;;;;;51.80;20.30;;;-3273.70;50.70;;;;;;5035051;28;19912;-83
2022/03/21 04:05:16;;;;;;;51.60;20.93;;;-3273.60;50.40;;;;;;5051627;28;20091;-82
2022/03/21 04:07:42;;;;;;;;;;;-3273.60;50.60;;;;;;5035549;28;20385;-84
2022/03/21 04:10:07;;;;;;;56.40;18.93;;;-3273.50;50.70;;;;;;5035134;28;20408;-83
2022/03/21 04:12:35;;;;;;;53.53;19.38;;;-3273.50;50.40;;;;;;5035714;28;20059;-84
2022/03/21 04:15:00;;;;;;;45.37;19.40;;;-3273.40;50.60;;;;;;5034935;28;20082;-84
2022/03/21 04:17:26;;;;;;;;;;;-3273.40;50.80;;;;;;5035901;28;20474;-83
2022/03/21 04:19:51;;;;;;;45.47;19.50;;;-3273.40;50.90;;;;;;5035642;28;20278;-84
2022/03/21 04:22:17;;;;;;;44.97;20.45;;;-3273.40;50.70;;;;;;5053010;28;20021;-84
2022/03/21 04:24:42;;;;;;;;;;;-3273.30;50.80;;;;;;5035340;28;20471;-84
2022/03/21 04:27:08;;;;;;;34.83;16.30;;;-3273.30;50.90;;;;;;5035142;28;19909;-83
2022/03/21 04:29:33;;;;;;;44.10;18.83;;;-3273.30;50.70;;;;;;5035482;28;20051;-84
2022/03/21 04:31:59;;;;;;;44.20;19.67;;;-3273.20;50.90;;;;;;5035927;28;20036;-84
2022/03/21 04:34:25;;;;;;;;;;;-3273.20;51.10;;;;;;5035190;28;20052;-83
2022/03/21 04:36:50;;;;;;;37.97;15.63;;;-3273.20;51.20;;;;;;5035318;28;19908;-83
2022/03/21 04:39:16;;;;;;;49.05;17.92;;;-3273.20;50.90;;;;;;5034217;28;20032;-84
2022/03/21 04:41:41;;;;;;;44.85;17.38;;;-3273.20;51.00;;;;;;5035435;28;20029;-84
2022/03/21 04:44:07;;;;;;;42.97;16.53;;;-3273.20;51.10;;;;;;5034620;28;20366;-82
2022/03/21 04:46:32;;;;;;;34.70;14.63;;;-3273.20;51.30;;;;;;5034665;28;20370;-85
2022/03/21 04:48:58;;;;;;;;;;;-3273.10;51.40;;;;;;5036290;28;20066;-85
2022/03/21 04:51:23;;;;;;;38.73;14.53;;;-3273.20;51.50;;;;;;5035572;28;19913;-85
2022/03/21 04:53:49;;;;;;;36.38;15.77;;;-3273.10;51.20;;;;;;5035591;28;20116;-85
2022/03/21 04:56:15;;;;;;;34.33;14.57;;;-3273.20;51.30;;;;;;5035925;28;20028;-86
2022/03/21 04:58:41;;;;;;;;;;;-3273.20;51.40;;;;;;5038863;28;20083;-85
2022/03/21 05:01:06;;;;;;;32.10;13.40;;;-3273.10;51.60;;;;;;5036527;28;19908;-86
2022/03/21 05:03:32;;;;;;;37.60;16.00;;;-3273.20;51.30;;;;;;5035403;28;20021;-86
2022/03/21 05:05:58;;;;;;;;;;;-3273.20;51.40;;;;;;5035738;28;20024;-86
2022/03/21 05:08:24;;;;;;;34.23;14.57;;;-3273.20;51.60;;;;;;5035180;28;19947;-84
2022/03/21 05:10:49;;;;;;;45.00;16.55;;;-3273.20;51.40;;;;;;5035309;28;20264;-84
2022/03/21 05:13:15;;;;;;;;;;;-3273.20;51.50;;;;;;5035467;28;20120;-85
2022/03/21 05:15:41;;;;;;;41.17;15.13;;;-3273.30;51.60;;;;;;5034073;28;19912;-85
2022/03/21 05:18:06;;;;;;;34.22;14.85;;;-3273.20;51.30;;;;;;5035010;28;20033;-85
2022/03/21 05:20:33;;;;;;;36.40;17.30;;;-3273.30;51.40;;;;;;5034992;28;20065;-85
2022/03/21 05:31:11;;;;;;;50.47;20.17;;;-3273.40;51.80;;;;;;5052851;28;20051;-85
2022/03/21 05:36:26;;;;;;;41.73;16.97;;;-3273.50;52.10;;;;;;5048038;28;20035;-86
2022/03/21 05:38:52;;;;;;;47.70;18.60;;;-3273.70;52.20;;;;;;5032171;28;20259;-86
2022/03/21 05:41:18;;;;;;;49.60;18.65;;;-3273.70;52.30;;;;;;5034533;28;20309;-85
2022/03/21 05:43:43;;;;;;;49.50;19.02;;;-3273.90;52.40;;;;;;5035625;28;20049;-86
2022/03/21 05:46:09;;;;;;;50.83;20.03;;;-3274.00;52.40;;;;;;5035053;28;20021;-86
2022/03/21 05:48:50;;;;;;;53.30;20.60;;;-3274.20;52.40;;;;;;5034732;28;20025;-85
2022/03/21 05:51:17;;;;;;;55.60;21.00;;;-3274.20;52.40;;;;;;5030698;28;20040;-86
2022/03/21 05:53:45;;;;;;;47.07;19.80;;;-3274.40;52.30;;;;;;5034898;28;20650;-85
2022/03/21 05:56:12;;;;;;;63.37;21.13;;;-3274.50;52.30;;;;;;5030663;28;20027;-86
2022/03/21 05:58:37;;;;;;;60.43;21.30;;;-3274.60;52.30;;;;;;5034707;28;20029;-86
2022/03/21 06:01:03;;;;;;;53.25;20.90;;;-3274.70;52.30;;;;;;5033187;28;20040;-86
2022/03/21 06:03:29;;;;;;;53.70;21.13;;;-3274.80;52.20;;;;;;5052147;28;20394;-85
2022/03/21 06:05:55;;;;;;;54.35;22.05;;;-3275.00;52.10;;;;;;5034382;28;20021;-85
2022/03/21 06:08:22;;;;;;;;;;;-3275.10;52.10;;;;;;5035039;28;20032;-85
2022/03/21 06:11:03;;;;;;;51.03;21.02;;;-3275.20;52.00;;;;;;5034321;28;19968;-84
2022/03/21 06:13:29;;;;;;;57.47;21.40;;;-3275.30;51.60;;;;;;5033947;28;20029;-86
2022/03/21 06:15:55;;;;;;;45.83;19.17;;;-3275.60;51.50;;;;;;5034443;28;20107;-85
2022/03/21 06:18:20;;;;;;;54.10;20.52;;;-3275.70;51.60;;;;;;5052553;28;20557;-84
2022/03/21 06:20:46;;;;;;;44.88;18.90;;;-3275.90;51.50;;;;;;5033895;28;20112;-85
2022/03/21 06:23:12;;;;;;;41.33;16.55;;;-3276.10;51.40;;;;;;5052203;28;20035;-86
2022/03/21 06:25:37;;;;;;;45.67;17.10;;;-3276.30;51.20;;;;;;5029682;28;20141;-85
2022/03/21 06:28:03;;;;;;;41.13;16.10;;;-3276.60;50.90;;;;;;5035566;28;20025;-85
2022/03/21 06:30:38;;;;;;;44.30;16.83;;;0.00;50.60;;;;;;5038124;28;20070;-86
2022/03/21 06:33:04;;;;;;;37.93;16.03;;;0.10;50.30;;;;;;5037795;28;20089;-85
2022/03/21 06:35:30;;;;;;;49.25;18.50;;;0.40;50.00;;;;;;5037465;28;20049;-85
2022/03/21 06:41:07;;;;;;;46.50;17.13;;;0.80;49.50;;;;;;5056020;28;20037;-86
2022/03/21 06:43:32;;;;;;;52.87;18.43;;;1.20;49.10;;;;;;5036968;28;20370;-86
2022/03/21 06:45:58;;;;;;;45.80;18.45;;;1.40;48.90;;;;;;5037107;28;20031;-86
2022/03/21 06:48:25;;;;;;;44.33;18.13;;;1.60;48.60;;;;;;5037429;28;20032;-86
2022/03/21 06:50:52;;;;;;;38.47;17.83;;;1.80;48.30;;;;;;5037456;28;20078;-80
2022/03/21 06:53:19;;;;;;;43.73;18.73;;;2.10;48.00;;;;;;5036821;28;20036;-82
2022/03/21 06:55:45;;;;;;;48.40;19.00;;;2.30;47.70;;;;;;5055223;28;20025;-81
2022/03/21 06:58:13;;;;;;;44.83;17.93;;;2.50;47.50;;;;;;5036841;28;20082;-82
2022/03/21 07:00:39;;;;;;;42.80;18.87;;;2.70;47.10;;;;;;5036999;28;20108;-82
2022/03/21 07:03:05;;;;;;;;;;;2.80;46.80;;;;;;5032945;28;20048;-83
2022/03/21 07:05:30;;;;;;;33.90;16.60;;;3.10;46.50;;;;;;5031899;28;19971;-83
2022/03/21 07:07:56;;;;;;;42.95;17.13;;;3.30;45.90;;;;;;5033912;28;20032;-82
2022/03/21 07:10:22;;;;;;;44.92;18.70;;;3.40;45.70;;;;;;5036294;28;20029;-82
2022/03/21 07:12:47;;;;;;;;;;;3.60;45.50;;;;;;5037020;28;20056;-82
2022/03/21 07:15:15;;;;;;;44.53;17.73;;;3.80;45.30;;;;;;5036390;28;20396;-83
2022/03/21 07:17:42;;;;;;;31.90;14.77;;;3.90;44.70;;;;;;5055103;28;20401;-82
2022/03/21 07:20:11;;;;;;;48.10;17.73;;;4.00;44.50;;;;;;5036295;28;20021;-83
2022/03/21 07:22:37;;;;;;;51.20;17.87;;;4.30;44.20;;;;;;5035539;28;20017;-82
2022/03/21 07:25:02;;;;;;;47.80;19.55;;;4.40;44.10;;;;;;5035818;28;20059;-80
2022/03/21 07:27:28;;;;;;;37.78;18.08;;;4.50;44.00;;;;;;5036569;28;20124;-82
2022/03/21 07:29:54;;;;;;;42.38;18.80;;;4.60;43.90;;;;;;5036468;28;20452;-82
2022/03/21 07:32:19;;;;;;;42.40;19.30;;;4.80;43.70;;;;;;5035967;28;20099;-83
2022/03/21 07:34:45;;;;;;;40.33;18.77;;;4.90;43.30;;;;;;5035613;28;20037;-83
2022/03/21 07:37:11;;;;;;;;;;;5.10;43.00;;;;;;5036781;28;20029;-83
2022/03/21 07:39:37;;;;;;;35.97;16.70;;;5.30;42.90;;;;;;5036261;28;19916;-83
2022/03/21 07:42:03;;;;;;;;;;;5.40;42.50;;;;;;5036737;28;20433;-82
2022/03/21 07:47:22;;;;;;;39.93;17.93;;;5.70;41.80;;;;;;5054326;28;20436;-82
2022/03/21 07:49:52;;;;;;;32.80;15.00;;;5.80;41.50;;;;;;5052252;28;20021;-82
2022/03/21 07:52:19;;;;;;;39.90;16.27;;;5.90;41.30;;;;;;5035537;28;20024;-82
2022/03/21 07:54:53;;;;;;;41.80;14.73;;;6.10;41.00;;;;;;5035458;28;20025;-82
2022/03/21 07:57:24;;;;;;;36.60;12.73;;;6.20;40.20;;;;;;5036643;28;20033;-82
2022/03/21 07:59:51;;;;;;;41.27;16.07;;;6.30;39.40;;;;;;5035646;28;20024;-83
2022/03/21 08:02:19;;;;;;;36.70;16.00;;;6.40;39.20;;;;;;5035722;28;20029;-82
2022/03/21 08:04:46;;;;;;;41.10;18.10;;;6.60;39.10;;;;;;5036104;28;20016;-83
2022/03/21 08:07:12;;;;;;;39.70;17.07;;;6.60;39.10;;;;;;5036107;28;20036;-82
2022/03/21 08:09:38;;;;;;;33.65;16.88;;;6.80;39.10;;;;;;5035390;28;20402;-82
2022/03/21 08:12:04;;;;;;;32.63;15.90;;;6.90;38.60;;;;;;5035534;28;20060;-82
2022/03/21 08:14:29;;;;;;;37.60;15.05;;;7.00;38.50;;;;;;5035799;28;20493;-82
2022/03/21 08:16:55;;;;;;;45.90;17.33;;;7.10;38.10;;;;;;5035672;28;20059;-84
2022/03/21 08:19:24;;;;;;;41.17;17.23;;;7.20;38.00;;;;;;5035823;28;20017;-83
2022/03/21 08:21:54;;;;;;;32.20;13.60;;;7.30;37.80;;;;;;5036029;28;20025;-82
2022/03/21 08:24:21;;;;;;;26.97;11.87;;;7.40;37.60;;;;;;5035206;28;20044;-82
2022/03/21 08:26:47;;;;;;;29.23;13.53;;;7.50;37.10;;;;;;5035896;28;20053;-82
2022/03/21 08:29:13;;;;;;;;;;;7.60;36.80;;;;;;5036896;28;20061;-81
2022/03/21 08:31:39;;;;;;;29.00;13.83;;;7.70;36.80;;;;;;5036107;28;20348;-82
2022/03/21 08:34:04;;;;;;;28.50;11.60;;;7.80;36.20;;;;;;5035250;28;20033;-82
2022/03/21 08:36:31;;;;;;;22.17;9.90;;;7.90;36.30;;;;;;5034564;28;20235;-82
2022/03/21 08:38:57;;;;;;;;;;;8.00;36.00;;;;;;5052757;28;20001;-81
2022/03/21 08:41:23;;;;;;;25.87;11.80;;;8.10;35.80;;;;;;5035988;28;19924;-82
2022/03/21 08:43:49;;;;;;;32.70;11.50;;;8.20;35.60;;;;;;5034656;28;20070;-82
2022/03/21 08:46:14;;;;;;;30.20;10.80;;;8.30;35.00;;;;;;5035360;28;20033;-82
2022/03/21 08:51:24;;;;;;;20.90;10.47;;;8.40;34.60;;;;;;5053676;28;20051;-81
2022/03/21 08:53:50;;;;;;;24.08;11.52;;;8.50;34.50;;;;;;5035396;28;20041;-81
2022/03/21 08:56:17;;;;;;;14.20;6.83;;;8.60;34.20;;;;;;5054935;28;20017;-88
2022/03/21 08:58:42;;;;;;;18.97;8.60;;;8.70;34.10;;;;;;5036704;28;20081;-81
2022/03/21 09:01:08;;;;;;;21.80;10.23;;;8.80;33.70;;;;;;5052936;28;20608;-84
2022/03/21 09:03:34;;;;;;;21.25;10.95;;;8.80;33.60;;;;;;5035996;28;20120;-84
2022/03/21 09:05:59;;;;;;;19.58;8.57;;;8.90;33.80;;;;;;5035939;28;20024;-84
2022/03/21 09:08:25;;;;;;;21.45;8.55;;;9.00;33.80;;;;;;5035969;28;20025;-84
2022/03/21 09:10:52;;;;;;;24.73;11.23;;;9.10;33.50;;;;;;5036066;28;20035;-84
2022/03/21 09:13:18;;;;;;;23.07;11.07;;;9.30;33.30;;;;;;5036568;28;20474;-83
2022/03/21 09:15:43;;;;;;;17.10;7.88;;;9.30;33.10;;;;;;5036284;28;20012;-84
2022/03/21 09:18:10;;;;;;;22.70;9.30;;;9.40;33.00;;;;;;5036188;28;20051;-83
2022/03/21 09:20:36;;;;;;;19.63;9.63;;;9.50;32.50;;;;;;5034891;28;20036;-82
2022/03/21 09:23:03;;;;;;;18.52;8.27;;;9.60;32.50;;;;;;5035788;28;20021;-84
2022/03/21 09:25:29;;;;;;;22.47;10.07;;;9.70;32.40;;;;;;5035646;28;20029;-83
2022/03/21 09:27:54;;;;;;;26.10;10.00;;;9.80;31.90;;;;;;5035713;28;20094;-83
2022/03/21 09:30:20;;;;;;;;;;;9.90;32.00;;;;;;5036329;28;20033;-84
2022/03/21 09:32:45;;;;;;;20.30;8.47;;;10.10;31.10;;;;;;5035990;28;20405;-84
2022/03/21 09:35:13;;;;;;;;;;;10.10;30.70;;;;;;5054474;28;20041;-84
2022/03/21 09:37:39;;;;;;;24.23;10.40;;;10.20;30.80;;;;;;5052784;28;20011;-84
2022/03/21 09:40:06;;;;;;;24.55;9.70;;;10.20;30.90;;;;;;5035892;28;20045;-84
2022/03/21 09:42:33;;;;;;;18.33;9.50;;;10.30;31.00;;;;;;5035116;28;20021;-84
2022/03/21 09:44:59;;;;;;;20.90;9.47;;;10.40;30.70;;;;;;5035252;28;20031;-84
2022/03/21 09:50:12;;;;;;;17.60;8.93;;;10.60;30.50;;;;;;5053286;28;20051;-83
2022/03/21 09:52:38;;;;;;;21.53;9.10;;;10.70;30.30;;;;;;5036025;28;20021;-85
2022/03/21 09:55:04;;;;;;;;;;;10.80;30.20;;;;;;5035906;28;20482;-84
2022/03/21 09:57:31;;;;;;;16.13;9.03;;;10.90;30.10;;;;;;5034603;28;19999;-85
2022/03/21 09:59:58;;;;;;;17.57;7.83;;;11.10;30.00;;;;;;5034568;28;20493;-87
2022/03/21 10:02:24;;;;;;;24.00;8.73;;;11.20;29.90;;;;;;5053091;28;20025;-85
2022/03/21 10:04:50;;;;;;;22.48;8.45;;;11.30;29.80;;;;;;5057651;28;20033;-85
2022/03/21 10:07:26;;;;;;;15.13;7.68;;;11.40;29.60;;;;;;5039794;28;20032;-84
2022/03/21 10:10:18;;;;;;;23.05;10.07;;;11.50;29.50;;;;;;5036560;28;20025;-84
2022/03/21 10:12:44;;;;;;;21.33;11.43;;;11.60;29.40;;;;;;5057311;28;20037;-84
2022/03/21 10:15:10;;;;;;;19.52;8.45;;;11.70;29.40;;;;;;5057443;28;20035;-84
2022/03/21 10:17:37;;;;;;;21.33;10.23;;;11.80;29.40;;;;;;5038663;28;20025;-84
2022/03/21 10:20:04;;;;;;;24.55;10.10;;;12.00;29.10;;;;;;5039262;28;20104;-84
2022/03/21 10:22:33;;;;;;;18.05;8.65;;;12.60;28.50;;;;;;5038828;28;20040;-84
2022/03/21 10:25:08;;;;;;;25.70;10.68;;;13.80;27.50;;;;;;5038548;28;20024;-84
2022/03/21 10:27:37;;;;;;;20.63;10.65;;;15.30;26.20;;;;;;5038101;28;20389;-84
2022/03/21 10:30:13;;;;;;;32.38;10.85;;;16.90;24.90;;;;;;5056376;28;20124;-84
2022/03/21 10:32:44;;;;;;;28.00;13.38;;;18.40;24.00;;;;;;5038651;28;20044;-84
2022/03/21 10:35:22;;;;;;;24.58;11.70;;;19.70;22.70;;;;;;5057033;28;20081;-84
2022/03/21 10:37:53;;;;;;;20.42;10.77;;;20.80;21.60;;;;;;5038526;28;20509;-84
2022/03/21 10:40:42;;;;;;;18.30;9.40;;;21.70;21.00;;;;;;5038257;28;20033;-83
2022/03/21 10:43:11;;;;;;;23.02;11.02;;;22.60;20.10;;;;;;5038506;28;20382;-84
2022/03/21 10:45:41;;;;;;;18.05;11.20;;;23.10;19.30;;;;;;5038086;28;20029;-84
2022/03/21 10:48:16;;;;;;;24.45;12.02;;;23.50;18.80;;;;;;5037594;28;20064;-83
2022/03/21 10:50:50;;;;;;;21.30;12.43;;;24.00;18.40;;;;;;5037454;28;20017;-84
2022/03/21 10:53:21;;;;;;;22.42;13.20;;;24.80;18.30;;;;;;5037460;28;20183;-84
2022/03/21 10:55:58;;;;;;;27.90;16.23;;;25.70;18.00;;;;;;5037705;28;20482;-84
2022/03/21 10:58:37;;;;;;;18.42;10.90;;;26.30;17.00;;;;;;5055672;28;20075;-84
2022/03/21 11:01:14;;;;;;;22.05;11.10;;;26.80;16.70;;;;;;5037204;28;20041;-84
2022/03/21 11:03:41;;;;;;;16.48;11.52;;;27.30;16.20;;;;;;5038290;28;20086;-85
2022/03/21 11:06:09;;;;;;;19.42;10.93;;;27.70;16.20;;;;;;5037022;28;20052;-83
2022/03/21 11:08:35;;;;;;;17.58;11.27;;;28.10;15.90;;;;;;5055995;28;20104;-84
2022/03/21 11:11:05;;;;;;;17.20;10.93;;;28.40;15.60;;;;;;5037892;28;20021;-84
2022/03/21 11:13:32;;;;;;;15.90;10.48;;;28.90;15.20;;;;;;5036623;28;20359;-84
2022/03/21 11:15:59;;;;;;;15.35;10.20;;;29.30;15.00;;;;;;5035695;28;20227;-85
2022/03/21 11:18:27;;;;;;;18.65;10.02;;;29.50;14.40;;;;;;5053733;28;20469;-85
2022/03/21 11:20:54;;;;;;;16.50;9.95;;;29.80;14.40;;;;;;5036619;28;20033;-86
2022/03/21 11:23:20;;;;;;;17.65;8.85;;;30.20;14.00;;;;;;5036905;28;20021;-84
2022/03/21 11:25:51;;;;;;;14.25;9.65;;;30.60;13.70;;;;;;5055138;28;20029;-84
2022/03/21 11:28:51;;;;;;;16.80;9.32;;;30.70;13.30;;;;;;5036592;28;20025;-84
2022/03/21 11:31:44;;;;;;;16.77;9.02;;;30.80;13.20;;;;;;5053513;28;20505;-84
2022/03/21 11:34:27;;;;;;;13.45;9.85;;;30.90;12.90;;;;;;5037128;28;20037;-84
2022/03/21 11:36:57;;;;;;;19.60;12.13;;;31.10;13.00;;;;;;5032346;28;20025;-85
2022/03/21 11:39:25;;;;;;;15.95;10.98;;;31.30;13.00;;;;;;5037016;28;20033;-84
2022/03/21 11:42:13;;;;;;;15.80;9.98;;;31.40;12.90;;;;;;5054883;28;20112;-84
2022/03/21 11:44:39;;;;;;;14.80;9.35;;;31.50;12.80;;;;;;5034935;28;20067;-84
2022/03/21 11:47:23;;;;;;;14.90;9.95;;;31.50;12.60;;;;;;5037911;28;20068;-83
2022/03/21 11:49:50;;;;;;;16.65;10.20;;;31.30;12.60;;;;;;5037764;28;20051;-83
2022/03/21 11:52:15;;;;;;;14.52;9.38;;;31.60;12.80;;;;;;5037574;28;20120;-83
2022/03/21 11:54:41;;;;;;;18.38;10.40;;;31.80;12.50;;;;;;5036928;28;20067;-84
2022/03/21 11:57:16;;;;;;;18.98;11.77;;;32.00;12.60;;;;;;5036350;28;20025;-83
2022/03/21 11:59:42;;;;;;;19.13;11.52;;;32.30;12.40;;;;;;5036546;28;20017;-83
2022/03/21 12:02:07;;;;;;;11.88;7.78;;;32.60;12.40;;;;;;5036357;28;20047;-83
2022/03/21 12:04:34;;;;;;;13.45;8.35;;;32.70;12.00;;;;;;5036983;28;20043;-84
2022/03/21 12:07:12;;;;;;;12.98;7.57;;;32.80;12.00;;;;;;5036854;28;20029;-84
2022/03/21 12:09:49;;;;;;;13.90;7.47;;;32.90;11.70;;;;;;5037252;28;20040;-83
2022/03/21 12:12:15;;;;;;;16.75;10.27;;;33.00;11.60;;;;;;5031548;28;20035;-84
2022/03/21 12:14:47;;;;;;;13.63;7.88;;;32.70;11.60;;;;;;5036364;28;20025;-84
2022/03/21 12:17:13;;;;;;;11.20;7.50;;;32.50;11.50;;;;;;5031368;28;20021;-84
2022/03/21 12:23:15;;;;;;;14.02;9.02;;;32.80;11.40;;;;;;5013853;28;20125;-86
2022/03/21 12:25:47;;;;;;;15.15;9.38;;;32.70;11.40;;;;;;5054266;28;20099;-85
2022/03/21 12:31:26;;;;;;;17.83;8.98;;;32.70;11.50;;;;;;5054879;28;20050;-85
2022/03/21 12:33:51;;;;;;;14.88;8.02;;;32.70;11.30;;;;;;5036895;28;20040;-86
2022/03/21 12:36:35;;;;;;;11.30;7.10;;;32.40;11.10;;;;;;5053204;28;20059;-86
2022/03/21 12:39:01;;;;;;;12.07;7.43;;;31.80;11.40;;;;;;5052364;28;20375;-85
2022/03/21 12:41:34;;;;;;;12.13;7.68;;;31.70;11.50;;;;;;5036360;28;20021;-86
2022/03/21 12:43:59;;;;;;;11.23;8.20;;;31.80;11.80;;;;;;5037056;28;20029;-85
2022/03/21 12:46:27;;;;;;;11.35;7.80;;;32.50;11.60;;;;;;5053132;28;20512;-85
2022/03/21 12:48:58;;;;;;;13.48;8.27;;;33.30;11.50;;;;;;5036520;28;20033;-85
2022/03/21 12:51:34;;;;;;;13.18;7.53;;;34.00;11.20;;;;;;5036483;28;20040;-86
2022/03/21 12:54:01;;;;;;;11.85;8.00;;;34.60;10.90;;;;;;5054472;28;20116;-85
2022/03/21 12:56:28;;;;;;;13.40;8.98;;;34.70;10.80;;;;;;5036052;28;20544;-85
2022/03/21 12:59:11;;;;;;;17.27;9.77;;;34.80;10.70;;;;;;5035369;28;20020;-85
2022/03/21 13:01:37;;;;;;;13.25;9.18;;;34.80;10.80;;;;;;5035357;28;20021;-85